Terminal Aerodrome Forecast
Issued by NWS Caribou, ME

Home | Current Version | Previous Version | Text Only | Print | Product List | Glossary On
Versions: 1 2 3 4 5 6 7 8 9 10 11 12 13 14
000
FTUS41 KCAR 031120
TAFBGR
TAF
KBGR 031120Z 0312/0412 19003KT P6SM BCFG FEW005 SCT090
     FM031300 18005KT P6SM SCT100
     FM031800 20011KT P6SM FEW050 SCT200=

USA.gov is the U.S. government's official web portal to all federal, state and local government web resources and services.